sensor_id;sensor_type;location;lat;lon;timestamp;temperature;humidity
70184;DHT22;57554;51.546;6.776;2023-05-15T00:00:39;15.80;64.30
70184;DHT22;57554;51.546;6.776;2023-05-15T00:03:08;15.80;64.30
70184;DHT22;57554;51.546;6.776;2023-05-15T00:05:41;15.70;64.50
70184;DHT22;57554;51.546;6.776;2023-05-15T00:08:17;15.70;64.00
70184;DHT22;57554;51.546;6.776;2023-05-15T00:10:55;15.60;64.30
70184;DHT22;57554;51.546;6.776;2023-05-15T00:13:47;15.60;64.30
70184;DHT22;57554;51.546;6.776;2023-05-15T00:16:23;15.60;64.30
70184;DHT22;57554;51.546;6.776;2023-05-15T00:19:02;15.60;64.40
70184;DHT22;57554;51.546;6.776;2023-05-15T00:21:48;15.50;64.50
70184;DHT22;57554;51.546;6.776;2023-05-15T00:24:28;15.50;64.40
70184;DHT22;57554;51.546;6.776;2023-05-15T00:27:18;15.50;64.50
70184;DHT22;57554;51.546;6.776;2023-05-15T00:29:46;15.50;64.50
70184;DHT22;57554;51.546;6.776;2023-05-15T00:32:28;15.40;64.50
70184;DHT22;57554;51.546;6.776;2023-05-15T00:34:54;15.40;64.50
70184;DHT22;57554;51.546;6.776;2023-05-15T00:37:20;15.40;64.40
70184;DHT22;57554;51.546;6.776;2023-05-15T00:39:49;15.30;64.40
70184;DHT22;57554;51.546;6.776;2023-05-15T00:42:18;15.30;64.80
70184;DHT22;57554;51.546;6.776;2023-05-15T00:44:52;15.20;65.20
70184;DHT22;57554;51.546;6.776;2023-05-15T00:47:21;15.20;65.50
70184;DHT22;57554;51.546;6.776;2023-05-15T00:49:50;15.10;65.90
70184;DHT22;57554;51.546;6.776;2023-05-15T00:52:25;15.10;65.90
70184;DHT22;57554;51.546;6.776;2023-05-15T00:54:51;15.10;66.00
70184;DHT22;57554;51.546;6.776;2023-05-15T00:57:19;15.00;66.20
70184;DHT22;57554;51.546;6.776;2023-05-15T01:00:00;15.00;66.40
70184;DHT22;57554;51.546;6.776;2023-05-15T01:02:29;14.90;66.60
70184;DHT22;57554;51.546;6.776;2023-05-15T01:04:57;14.90;66.70
70184;DHT22;57554;51.546;6.776;2023-05-15T01:07:28;14.90;67.00
70184;DHT22;57554;51.546;6.776;2023-05-15T01:09:56;14.90;67.10
70184;DHT22;57554;51.546;6.776;2023-05-15T01:12:25;14.80;67.00
70184;DHT22;57554;51.546;6.776;2023-05-15T01:14:55;14.80;67.00
70184;DHT22;57554;51.546;6.776;2023-05-15T01:17:21;14.80;66.90
70184;DHT22;57554;51.546;6.776;2023-05-15T01:19:49;14.80;66.90
70184;DHT22;57554;51.546;6.776;2023-05-15T01:27:57;14.70;66.40
70184;DHT22;57554;51.546;6.776;2023-05-15T01:30:33;14.70;66.40
70184;DHT22;57554;51.546;6.776;2023-05-15T01:33:19;14.70;66.30
70184;DHT22;57554;51.546;6.776;2023-05-15T01:39:22;14.60;66.40
70184;DHT22;57554;51.546;6.776;2023-05-15T01:42:01;14.60;66.40
70184;DHT22;57554;51.546;6.776;2023-05-15T01:44:29;14.50;66.40
70184;DHT22;57554;51.546;6.776;2023-05-15T01:46:58;14.40;66.50
70184;DHT22;57554;51.546;6.776;2023-05-15T01:49:30;14.30;67.10
70184;DHT22;57554;51.546;6.776;2023-05-15T01:52:09;14.20;67.90
70184;DHT22;57554;51.546;6.776;2023-05-15T01:54:53;14.10;69.10
70184;DHT22;57554;51.546;6.776;2023-05-15T01:57:36;13.90;69.50
70184;DHT22;57554;51.546;6.776;2023-05-15T02:00:15;13.90;69.80
70184;DHT22;57554;51.546;6.776;2023-05-15T02:02:59;13.90;69.70
70184;DHT22;57554;51.546;6.776;2023-05-15T02:05:49;13.90;69.30
70184;DHT22;57554;51.546;6.776;2023-05-15T02:08:37;13.90;69.10
70184;DHT22;57554;51.546;6.776;2023-05-15T02:11:35;13.90;69.20
70184;DHT22;57554;51.546;6.776;2023-05-15T02:14:13;13.80;70.00
70184;DHT22;57554;51.546;6.776;2023-05-15T02:16:52;13.70;70.30
70184;DHT22;57554;51.546;6.776;2023-05-15T02:20:05;13.60;70.80
70184;DHT22;57554;51.546;6.776;2023-05-15T02:32:27;13.50;70.70
70184;DHT22;57554;51.546;6.776;2023-05-15T02:38:32;13.50;70.20
70184;DHT22;57554;51.546;6.776;2023-05-15T02:41:04;13.60;70.00
70184;DHT22;57554;51.546;6.776;2023-05-15T02:44:08;13.60;69.60
70184;DHT22;57554;51.546;6.776;2023-05-15T02:46:44;13.60;69.40
70184;DHT22;57554;51.546;6.776;2023-05-15T02:49:14;13.60;69.40
70184;DHT22;57554;51.546;6.776;2023-05-15T02:52:01;13.60;69.20
70184;DHT22;57554;51.546;6.776;2023-05-15T02:54:36;13.60;69.20
70184;DHT22;57554;51.546;6.776;2023-05-15T02:57:13;13.60;69.20
70184;DHT22;57554;51.546;6.776;2023-05-15T02:59:45;13.50;69.80
70184;DHT22;57554;51.546;6.776;2023-05-15T03:02:25;13.30;70.30
70184;DHT22;57554;51.546;6.776;2023-05-15T03:08:47;13.20;70.60
70184;DHT22;57554;51.546;6.776;2023-05-15T03:18:40;13.10;70.90
70184;DHT22;57554;51.546;6.776;2023-05-15T03:21:12;13.10;70.70
70184;DHT22;57554;51.546;6.776;2023-05-15T03:23:41;13.10;70.50
70184;DHT22;57554;51.546;6.776;2023-05-15T03:26:17;13.20;70.30
70184;DHT22;57554;51.546;6.776;2023-05-15T03:28:46;13.20;70.10
70184;DHT22;57554;51.546;6.776;2023-05-15T03:31:13;13.20;70.10
70184;DHT22;57554;51.546;6.776;2023-05-15T03:33:49;13.30;70.00
70184;DHT22;57554;51.546;6.776;2023-05-15T03:36:50;13.30;70.00
70184;DHT22;57554;51.546;6.776;2023-05-15T03:39:21;13.30;69.80
70184;DHT22;57554;51.546;6.776;2023-05-15T03:41:49;13.30;69.80
70184;DHT22;57554;51.546;6.776;2023-05-15T03:44:26;13.30;69.60
70184;DHT22;57554;51.546;6.776;2023-05-15T03:46:51;13.40;69.60
70184;DHT22;57554;51.546;6.776;2023-05-15T03:49:39;13.40;69.80
70184;DHT22;57554;51.546;6.776;2023-05-15T03:52:16;13.40;69.80
70184;DHT22;57554;51.546;6.776;2023-05-15T03:54:54;13.40;70.10
70184;DHT22;57554;51.546;6.776;2023-05-15T03:57:25;13.40;70.10
70184;DHT22;57554;51.546;6.776;2023-05-15T04:00:00;13.40;70.10
70184;DHT22;57554;51.546;6.776;2023-05-15T04:05:38;13.50;70.10
70184;DHT22;57554;51.546;6.776;2023-05-15T04:12:15;13.60;70.10
70184;DHT22;57554;51.546;6.776;2023-05-15T04:14:49;13.60;70.00
70184;DHT22;57554;51.546;6.776;2023-05-15T04:23:50;13.60;69.80
70184;DHT22;57554;51.546;6.776;2023-05-15T04:26:27;13.60;69.50
70184;DHT22;57554;51.546;6.776;2023-05-15T04:29:10;13.60;69.50
70184;DHT22;57554;51.546;6.776;2023-05-15T04:31:51;13.60;69.40
70184;DHT22;57554;51.546;6.776;2023-05-15T04:34:22;13.60;69.30
70184;DHT22;57554;51.546;6.776;2023-05-15T04:36:50;13.60;69.30
70184;DHT22;57554;51.546;6.776;2023-05-15T04:39:37;13.70;69.20
70184;DHT22;57554;51.546;6.776;2023-05-15T04:42:03;13.70;69.20
70184;DHT22;57554;51.546;6.776;2023-05-15T04:44:29;13.70;69.10
70184;DHT22;57554;51.546;6.776;2023-05-15T04:47:09;13.70;69.00
70184;DHT22;57554;51.546;6.776;2023-05-15T04:49:36;13.80;69.10
70184;DHT22;57554;51.546;6.776;2023-05-15T04:52:09;13.80;69.60
70184;DHT22;57554;51.546;6.776;2023-05-15T04:54:41;13.70;70.10
70184;DHT22;57554;51.546;6.776;2023-05-15T04:57:11;13.60;70.40
70184;DHT22;57554;51.546;6.776;2023-05-15T04:59:47;13.60;70.80
70184;DHT22;57554;51.546;6.776;2023-05-15T05:02:19;13.50;70.90
70184;DHT22;57554;51.546;6.776;2023-05-15T05:04:46;13.50;71.40
70184;DHT22;57554;51.546;6.776;2023-05-15T05:07:23;13.50;71.40
70184;DHT22;57554;51.546;6.776;2023-05-15T05:09:51;13.50;72.00
70184;DHT22;57554;51.546;6.776;2023-05-15T05:12:23;13.40;72.20
70184;DHT22;57554;51.546;6.776;2023-05-15T05:14:54;13.40;72.50
70184;DHT22;57554;51.546;6.776;2023-05-15T05:17:36;13.40;72.70
70184;DHT22;57554;51.546;6.776;2023-05-15T05:20:09;13.40;73.00
70184;DHT22;57554;51.546;6.776;2023-05-15T05:22:46;13.40;73.20
70184;DHT22;57554;51.546;6.776;2023-05-15T05:25:30;13.40;73.20
70184;DHT22;57554;51.546;6.776;2023-05-15T05:27:59;13.40;73.30
70184;DHT22;57554;51.546;6.776;2023-05-15T05:30:48;13.40;73.50
70184;DHT22;57554;51.546;6.776;2023-05-15T05:33:25;13.40;73.60
70184;DHT22;57554;51.546;6.776;2023-05-15T05:35:56;13.40;73.40
70184;DHT22;57554;51.546;6.776;2023-05-15T05:38:22;13.40;73.60
70184;DHT22;57554;51.546;6.776;2023-05-15T05:40:52;13.30;73.50
70184;DHT22;57554;51.546;6.776;2023-05-15T05:43:18;13.30;73.50
70184;DHT22;57554;51.546;6.776;2023-05-15T05:45:46;13.30;73.60
70184;DHT22;57554;51.546;6.776;2023-05-15T05:48:13;13.20;73.60
70184;DHT22;57554;51.546;6.776;2023-05-15T05:50:45;13.20;73.60
70184;DHT22;57554;51.546;6.776;2023-05-15T05:53:11;13.10;73.60
70184;DHT22;57554;51.546;6.776;2023-05-15T05:55:37;13.10;73.70
70184;DHT22;57554;51.546;6.776;2023-05-15T05:58:03;13.20;73.60
70184;DHT22;57554;51.546;6.776;2023-05-15T06:00:36;13.20;73.50
70184;DHT22;57554;51.546;6.776;2023-05-15T06:09:53;13.40;73.10
70184;DHT22;57554;51.546;6.776;2023-05-15T06:18:55;13.90;73.60
70184;DHT22;57554;51.546;6.776;2023-05-15T06:21:21;14.30;72.90
70184;DHT22;57554;51.546;6.776;2023-05-15T06:23:46;14.70;72.30
70184;DHT22;57554;51.546;6.776;2023-05-15T06:26:20;15.00;71.00
70184;DHT22;57554;51.546;6.776;2023-05-15T06:28:49;15.30;70.50
70184;DHT22;57554;51.546;6.776;2023-05-15T06:31:19;15.50;68.30
70184;DHT22;57554;51.546;6.776;2023-05-15T06:34:06;15.40;66.70
70184;DHT22;57554;51.546;6.776;2023-05-15T06:36:32;15.20;66.20
70184;DHT22;57554;51.546;6.776;2023-05-15T06:38:58;15.00;66.50
70184;DHT22;57554;51.546;6.776;2023-05-15T06:41:31;14.70;67.00
70184;DHT22;57554;51.546;6.776;2023-05-15T06:44:13;14.50;67.90
70184;DHT22;57554;51.546;6.776;2023-05-15T06:46:45;14.40;68.50
70184;DHT22;57554;51.546;6.776;2023-05-15T06:49:11;14.30;68.90
70184;DHT22;57554;51.546;6.776;2023-05-15T06:51:41;14.30;69.00
70184;DHT22;57554;51.546;6.776;2023-05-15T06:54:07;14.20;69.10
70184;DHT22;57554;51.546;6.776;2023-05-15T06:56:33;14.10;69.20
70184;DHT22;57554;51.546;6.776;2023-05-15T06:59:05;14.10;69.70
70184;DHT22;57554;51.546;6.776;2023-05-15T07:01:41;14.20;70.20
70184;DHT22;57554;51.546;6.776;2023-05-15T07:04:15;14.20;70.10
70184;DHT22;57554;51.546;6.776;2023-05-15T07:10:21;14.10;70.40
70184;DHT22;57554;51.546;6.776;2023-05-15T07:12:56;14.20;70.00
70184;DHT22;57554;51.546;6.776;2023-05-15T07:15:45;14.40;70.50
70184;DHT22;57554;51.546;6.776;2023-05-15T07:18:11;14.60;70.40
70184;DHT22;57554;51.546;6.776;2023-05-15T07:20:37;14.90;69.30
70184;DHT22;57554;51.546;6.776;2023-05-15T07:23:06;15.10;67.90
70184;DHT22;57554;51.546;6.776;2023-05-15T07:25:32;15.20;68.10
70184;DHT22;57554;51.546;6.776;2023-05-15T07:28:09;15.30;66.50
70184;DHT22;57554;51.546;6.776;2023-05-15T07:30:35;15.40;66.80
70184;DHT22;57554;51.546;6.776;2023-05-15T07:33:01;15.70;67.00
70184;DHT22;57554;51.546;6.776;2023-05-15T07:35:30;16.00;65.20
70184;DHT22;57554;51.546;6.776;2023-05-15T07:38:13;16.10;64.40
70184;DHT22;57554;51.546;6.776;2023-05-15T07:40:48;16.20;63.40
70184;DHT22;57554;51.546;6.776;2023-05-15T07:43:24;16.20;63.70
70184;DHT22;57554;51.546;6.776;2023-05-15T07:45:53;16.10;63.50
70184;DHT22;57554;51.546;6.776;2023-05-15T07:48:19;16.00;63.90
70184;DHT22;57554;51.546;6.776;2023-05-15T07:50:46;15.90;63.90
70184;DHT22;57554;51.546;6.776;2023-05-15T07:53:18;16.00;64.30
70184;DHT22;57554;51.546;6.776;2023-05-15T07:55:44;16.00;64.50
70184;DHT22;57554;51.546;6.776;2023-05-15T07:58:10;16.20;65.00
70184;DHT22;57554;51.546;6.776;2023-05-15T08:00:36;16.50;64.10
70184;DHT22;57554;51.546;6.776;2023-05-15T08:03:09;16.80;63.90
70184;DHT22;57554;51.546;6.776;2023-05-15T08:05:47;17.10;62.10
70184;DHT22;57554;51.546;6.776;2023-05-15T08:11:07;18.00;61.50
70184;DHT22;57554;51.546;6.776;2023-05-15T08:13:36;18.50;59.10
70184;DHT22;57554;51.546;6.776;2023-05-15T08:16:02;18.80;59.30
70184;DHT22;57554;51.546;6.776;2023-05-15T08:18:34;19.20;57.50
70184;DHT22;57554;51.546;6.776;2023-05-15T08:21:02;19.40;56.70
70184;DHT22;57554;51.546;6.776;2023-05-15T08:26:53;19.80;52.30
70184;DHT22;57554;51.546;6.776;2023-05-15T08:32:52;19.30;54.20
70184;DHT22;57554;51.546;6.776;2023-05-15T08:35:29;19.30;55.80
70184;DHT22;57554;51.546;6.776;2023-05-15T08:38:05;19.60;53.70
70184;DHT22;57554;51.546;6.776;2023-05-15T08:43:43;19.90;54.50
70184;DHT22;57554;51.546;6.776;2023-05-15T08:46:18;20.20;52.50
70184;DHT22;57554;51.546;6.776;2023-05-15T08:52:32;20.10;51.90
70184;DHT22;57554;51.546;6.776;2023-05-15T08:55:21;20.00;51.20
70184;DHT22;57554;51.546;6.776;2023-05-15T08:58:16;20.10;52.30
70184;DHT22;57554;51.546;6.776;2023-05-15T09:00:50;20.30;52.30
70184;DHT22;57554;51.546;6.776;2023-05-15T09:03:50;20.50;51.30
70184;DHT22;57554;51.546;6.776;2023-05-15T09:06:33;20.60;49.40
70184;DHT22;57554;51.546;6.776;2023-05-15T09:09:02;20.80;49.20
70184;DHT22;57554;51.546;6.776;2023-05-15T09:11:40;20.90;48.90
70184;DHT22;57554;51.546;6.776;2023-05-15T09:18:15;21.70;48.60
70184;DHT22;57554;51.546;6.776;2023-05-15T09:27:39;22.30;46.80
70184;DHT22;57554;51.546;6.776;2023-05-15T09:30:18;22.70;46.60
70184;DHT22;57554;51.546;6.776;2023-05-15T09:33:17;23.00;47.40
70184;DHT22;57554;51.546;6.776;2023-05-15T09:36:20;23.30;43.80
70184;DHT22;57554;51.546;6.776;2023-05-15T09:39:17;23.40;43.40
70184;DHT22;57554;51.546;6.776;2023-05-15T09:48:47;23.60;43.60
70184;DHT22;57554;51.546;6.776;2023-05-15T09:58:22;24.00;42.20
70184;DHT22;57554;51.546;6.776;2023-05-15T10:01:37;24.30;42.80
70184;DHT22;57554;51.546;6.776;2023-05-15T10:11:00;25.10;40.10
70184;DHT22;57554;51.546;6.776;2023-05-15T10:13:51;25.00;39.20
70184;DHT22;57554;51.546;6.776;2023-05-15T10:26:58;24.60;39.20
70184;DHT22;57554;51.546;6.776;2023-05-15T10:39:13;24.50;38.60
70184;DHT22;57554;51.546;6.776;2023-05-15T10:45:46;24.80;37.50
70184;DHT22;57554;51.546;6.776;2023-05-15T10:52:20;25.00;38.20
70184;DHT22;57554;51.546;6.776;2023-05-15T11:01:48;25.00;37.30
70184;DHT22;57554;51.546;6.776;2023-05-15T11:04:32;24.90;36.50
70184;DHT22;57554;51.546;6.776;2023-05-15T13:00:57;23.50;42.50
70184;DHT22;57554;51.546;6.776;2023-05-15T13:13:01;23.20;41.60
70184;DHT22;57554;51.546;6.776;2023-05-15T13:15:50;22.90;43.40
70184;DHT22;57554;51.546;6.776;2023-05-15T13:27:18;23.20;43.20
70184;DHT22;57554;51.546;6.776;2023-05-15T15:22:35;21.40;46.40
70184;DHT22;57554;51.546;6.776;2023-05-15T15:28:47;21.10;46.90
70184;DHT22;57554;51.546;6.776;2023-05-15T15:35:20;20.80;48.20
70184;DHT22;57554;51.546;6.776;2023-05-15T15:37:54;20.40;48.50
70184;DHT22;57554;51.546;6.776;2023-05-15T16:00:37;19.10;52.10
70184;DHT22;57554;51.546;6.776;2023-05-15T19:44:31;14.60;68.70
70184;DHT22;57554;51.546;6.776;2023-05-15T19:47:16;14.60;69.00
70184;DHT22;57554;51.546;6.776;2023-05-15T19:53:23;14.40;69.10
70184;DHT22;57554;51.546;6.776;2023-05-15T19:55:49;14.40;69.20
70184;DHT22;57554;51.546;6.776;2023-05-15T19:58:18;14.40;69.20
70184;DHT22;57554;51.546;6.776;2023-05-15T20:00:58;14.40;69.10
70184;DHT22;57554;51.546;6.776;2023-05-15T20:06:50;14.50;68.70
70184;DHT22;57554;51.546;6.776;2023-05-15T20:09:24;14.50;68.30
70184;DHT22;57554;51.546;6.776;2023-05-15T20:12:31;14.50;68.20
70184;DHT22;57554;51.546;6.776;2023-05-15T20:21:50;14.50;67.90
70184;DHT22;57554;51.546;6.776;2023-05-15T20:24:30;14.40;67.80
70184;DHT22;57554;51.546;6.776;2023-05-15T20:27:04;14.40;67.90
70184;DHT22;57554;51.546;6.776;2023-05-15T20:29:31;14.40;67.80
70184;DHT22;57554;51.546;6.776;2023-05-15T20:31:59;14.40;67.80
70184;DHT22;57554;51.546;6.776;2023-05-15T20:34:33;14.40;67.90
70184;DHT22;57554;51.546;6.776;2023-05-15T20:37:10;14.40;67.80
70184;DHT22;57554;51.546;6.776;2023-05-15T20:39:39;14.30;67.90
70184;DHT22;57554;51.546;6.776;2023-05-15T20:42:05;14.30;68.00
70184;DHT22;57554;51.546;6.776;2023-05-15T20:44:31;14.20;68.10
70184;DHT22;57554;51.546;6.776;2023-05-15T20:47:10;14.30;68.20
70184;DHT22;57554;51.546;6.776;2023-05-15T20:49:44;14.30;68.10
70184;DHT22;57554;51.546;6.776;2023-05-15T20:52:13;14.20;68.30
70184;DHT22;57554;51.546;6.776;2023-05-15T20:54:51;14.20;68.20
70184;DHT22;57554;51.546;6.776;2023-05-15T21:04:26;14.20;68.40
70184;DHT22;57554;51.546;6.776;2023-05-15T21:06:59;14.20;68.30
70184;DHT22;57554;51.546;6.776;2023-05-15T21:13:07;14.10;68.40
70184;DHT22;57554;51.546;6.776;2023-05-15T21:15:59;14.10;68.60
70184;DHT22;57554;51.546;6.776;2023-05-15T21:18:47;14.10;68.60
70184;DHT22;57554;51.546;6.776;2023-05-15T21:21:26;14.10;68.60
70184;DHT22;57554;51.546;6.776;2023-05-15T21:24:16;14.10;68.60
70184;DHT22;57554;51.546;6.776;2023-05-15T21:36:38;13.90;69.40
70184;DHT22;57554;51.546;6.776;2023-05-15T21:39:50;13.90;69.60
70184;DHT22;57554;51.546;6.776;2023-05-15T21:42:44;13.90;69.80
70184;DHT22;57554;51.546;6.776;2023-05-15T21:49:18;13.80;70.10
